createdAt,value
2023-11-03T11:54:24.855Z,8.52
2023-11-03T18:07:16.960Z,3.80
2023-11-03T18:09:21.997Z,2.33
2023-11-03T18:11:27.228Z,3.40
2023-11-03T18:13:32.845Z,3.42
2023-11-03T18:15:38.108Z,3.95
2023-11-03T18:17:41.443Z,2.65
2023-11-03T18:19:47.293Z,2.42
2023-11-03T18:21:52.174Z,2.00
2023-11-03T18:24:00.398Z,2.53
2023-11-03T18:26:06.153Z,2.65
2023-11-03T18:28:12.631Z,2.72
2023-11-03T18:30:17.807Z,2.63
2023-11-03T18:32:20.208Z,3.50
2023-11-03T18:34:25.417Z,1.67
2023-11-03T18:36:30.533Z,2.92
2023-11-03T18:38:35.554Z,2.97
2023-11-03T18:40:44.221Z,3.28
2023-11-03T18:42:47.040Z,3.03
2023-11-03T18:44:51.887Z,2.08
2023-11-03T18:46:56.778Z,2.33
2023-11-03T18:49:01.709Z,3.25
2023-11-03T18:51:25.761Z,5.55
2023-11-03T18:57:06.850Z,4.13
2023-11-03T18:58:48.030Z,3.50
2023-11-03T19:06:02.315Z,3.33
2023-11-03T19:07:34.460Z,2.80
2023-11-03T19:09:43.347Z,1.98
2023-11-03T19:11:51.328Z,1.33
2023-11-03T19:13:56.290Z,2.38
2023-11-03T19:16:02.002Z,3.38
2023-11-03T19:18:07.534Z,2.95
2023-11-03T19:20:14.228Z,2.03
2023-11-03T19:22:19.238Z,2.47
2023-11-03T19:24:24.689Z,2.15
2023-11-03T19:26:30.119Z,1.48
2023-11-03T19:28:37.615Z,1.40
2023-11-03T19:30:44.861Z,2.00
2023-11-03T19:32:51.587Z,3.38
2023-11-03T19:34:56.562Z,2.70
2023-11-03T19:37:01.470Z,3.88
2023-11-03T19:39:07.197Z,4.68
2023-11-03T19:41:12.860Z,4.57
2023-11-03T19:43:17.875Z,7.28
2023-11-03T19:45:25.584Z,9.35
2023-11-03T19:47:28.157Z,6.22
2023-11-03T19:49:34.780Z,2.55
2023-11-03T19:51:39.896Z,2.65
2023-11-03T19:53:44.965Z,1.33
2023-11-03T19:55:52.697Z,3.05
2023-11-03T19:57:57.739Z,1.80
2023-11-03T20:00:02.687Z,3.25
2023-11-03T20:02:12.354Z,4.05
2023-11-03T20:04:17.384Z,2.72
2023-11-03T20:06:23.158Z,3.75
2023-11-03T20:08:28.229Z,4.53
2023-11-03T20:10:33.680Z,3.17
2023-11-03T20:12:38.851Z,4.22
2023-11-03T20:14:43.804Z,2.45
2023-11-03T20:16:50.279Z,5.10
2023-11-03T20:18:57.989Z,2.97
2023-11-03T20:21:03.164Z,4.72
2023-11-03T20:23:08.164Z,2.70
2023-11-03T20:25:11.048Z,3.45
2023-11-03T20:27:16.705Z,2.92
2023-11-03T20:29:21.634Z,2.85
2023-11-03T20:31:26.484Z,2.70
2023-11-03T20:33:31.600Z,2.45
2023-11-03T20:35:36.494Z,2.85
2023-11-03T20:37:41.605Z,2.28
2023-11-03T20:39:46.584Z,3.58
2023-11-03T20:41:53.063Z,3.40
2023-11-03T20:43:58.028Z,4.07
2023-11-03T20:46:03.880Z,3.67
2023-11-03T20:48:09.184Z,3.60
2023-11-03T20:50:16.108Z,2.60
2023-11-03T20:52:23.617Z,2.67
2023-11-03T20:54:29.731Z,3.70
2023-11-03T20:56:34.663Z,4.18
2023-11-03T20:58:39.614Z,4.05
2023-11-03T21:00:45.363Z,3.80
2023-11-03T21:02:50.650Z,3.92
2023-11-03T21:04:56.467Z,4.65
2023-11-03T21:06:59.062Z,3.15
2023-11-03T21:09:07.805Z,3.03
2023-11-03T21:11:13.438Z,3.33
2023-11-03T21:13:18.470Z,4.78
2023-11-03T21:15:23.465Z,3.42
2023-11-03T21:17:25.756Z,2.17
2023-11-03T21:19:35.057Z,2.42
2023-11-03T21:21:40.985Z,5.50
2023-11-03T21:23:48.982Z,3.85
2023-11-03T21:25:58.341Z,3.05
2023-11-03T21:28:03.434Z,3.50
2023-11-03T21:30:09.491Z,4.03
2023-11-03T21:32:14.445Z,3.17
2023-11-03T21:34:19.638Z,2.05
2023-11-03T21:36:28.400Z,2.97
2023-11-03T21:38:33.332Z,6.25
2023-11-03T21:40:38.249Z,2.45
2023-11-03T21:42:47.562Z,1.77
2023-11-03T21:44:50.012Z,2.40
2023-11-03T21:46:55.313Z,2.13
2023-11-03T21:49:00.521Z,1.77
2023-11-03T21:51:07.204Z,2.63
2023-11-03T21:53:12.316Z,3.25
2023-11-03T21:55:14.896Z,3.40
2023-11-03T21:57:19.861Z,2.15
2023-11-03T21:59:27.469Z,2.55
2023-11-03T22:01:32.608Z,3.03
2023-11-03T22:03:37.930Z,2.47
2023-11-03T22:05:43.434Z,2.00
2023-11-03T22:07:49.632Z,3.70
2023-11-03T22:09:54.908Z,2.60
2023-11-03T22:12:00.040Z,3.20
2023-11-03T22:14:05.363Z,2.38
2023-11-03T22:16:13.943Z,5.40
2023-11-03T22:18:19.620Z,5.10
2023-11-03T22:20:24.902Z,4.40
2023-11-03T22:22:29.873Z,6.18
2023-11-03T22:24:35.795Z,5.63
2023-11-03T22:26:44.013Z,2.78
2023-11-03T22:28:50.624Z,3.17
2023-11-03T22:30:55.578Z,4.72
2023-11-03T22:33:03.292Z,2.97
2023-11-03T22:35:08.992Z,2.63
2023-11-03T22:37:11.462Z,3.90
2023-11-03T22:39:20.948Z,5.00
2023-11-03T22:41:26.556Z,6.13
2023-11-03T22:43:31.629Z,7.78
2023-11-03T22:45:36.688Z,8.60
2023-11-03T22:47:43.112Z,9.10
2023-11-03T22:49:50.789Z,7.00
2023-11-03T22:51:53.250Z,6.57
2023-11-03T22:53:58.226Z,4.43
2023-11-03T22:56:00.882Z,4.38
2023-11-03T22:58:05.865Z,5.35
2023-11-03T23:00:14.092Z,4.72
2023-11-03T23:02:19.358Z,4.60
2023-11-03T23:04:24.349Z,5.40
2023-11-03T23:06:32.114Z,4.80
2023-11-03T23:08:37.480Z,4.47
2023-11-03T23:10:41.501Z,3.28
2023-11-03T23:12:47.935Z,3.97
2023-11-03T23:14:52.928Z,3.85
2023-11-03T23:16:59.795Z,3.70
2023-11-03T23:19:05.725Z,3.53
2023-11-03T23:21:12.699Z,3.33
2023-11-03T23:23:20.860Z,3.35
2023-11-03T23:25:25.940Z,3.75
2023-11-03T23:27:28.270Z,2.70
2023-11-03T23:29:33.573Z,4.10
2023-11-03T23:31:36.382Z,3.72
2023-11-03T23:35:43.902Z,2.80
2023-11-03T23:37:48.956Z,2.17
2023-11-03T23:39:56.700Z,2.25
2023-11-03T23:41:59.053Z,2.42
2023-11-03T23:44:06.088Z,4.00
2023-11-03T23:46:11.091Z,2.78
2023-11-03T23:48:13.723Z,3.67
2023-11-03T23:50:18.761Z,1.98
2023-11-03T23:52:23.679Z,3.10
2023-11-03T23:54:28.677Z,2.70
2023-11-03T23:56:38.472Z,2.95
2023-11-03T23:58:44.309Z,1.85
